PRIVATE WETTERSTATION BILLIGHEIM-ALLFELD                       ZURCK
Wetterdaten: Dienstag, 04.03.2014
Datum Zeit Temp. A. Temp. A. min Temp. A. max Feuchte A. Luftdruck Regen Wind Richtung Richtung Sonnenschein ET Solar Taupunkt Windchill Windben Empfang
04.03.2014 00:00 2,6 C 2,6 C 2,6 C 88 % 996,5 hPa 0,0 l/m 0,0 km/h (0 Bft) N-NW 337 0 min 0,000 mm 0 W/m 0,8 C 2,6 C 1,6 km/h (1 Bft) 98 %
04.03.2014 00:10 2,7 C 2,6 C 2,7 C 88 % 996,5 hPa 0,0 l/m 0,0 km/h (0 Bft) N-NW 337 0 min 0,000 mm 0 W/m 0,9 C 2,7 C 3,2 km/h (1 Bft) 76 %
04.03.2014 00:20 2,7 C 2,7 C 2,7 C 88 % 996,7 hPa 0,0 l/m 0,0 km/h (0 Bft) N-NW 337 0 min 0,000 mm 0 W/m 0,9 C 2,7 C 3,2 km/h (1 Bft) 97 %
04.03.2014 00:30 2,7 C 2,6 C 2,7 C 88 % 996,6 hPa 0,0 l/m 0,0 km/h (0 Bft) N 360 0 min 0,000 mm 0 W/m 0,9 C 2,7 C 3,2 km/h (1 Bft) 98 %
04.03.2014 00:40 2,6 C 2,6 C 2,7 C 88 % 996,8 hPa 0,0 l/m 0,0 km/h (0 Bft) N 360 0 min 0,000 mm 0 W/m 0,8 C 2,6 C 1,6 km/h (1 Bft) 97 %
04.03.2014 00:50 2,7 C 2,6 C 2,7 C 88 % 996,7 hPa 0,0 l/m 0,0 km/h (0 Bft) N 360 0 min 0,000 mm 0 W/m 0,9 C 2,7 C 1,6 km/h (1 Bft) 98 %
04.03.2014 01:00 2,7 C 2,7 C 2,7 C 88 % 996,8 hPa 0,0 l/m 0,0 km/h (0 Bft) N 360 0 min 0,000 mm 0 W/m 0,9 C 2,7 C 1,6 km/h (1 Bft) 98 %
04.03.2014 01:10 2,8 C 2,7 C 2,8 C 88 % 996,7 hPa 0,0 l/m 0,0 km/h (0 Bft) N 0 0 min 0,000 mm 0 W/m 1,0 C 2,8 C 0,0 km/h (0 Bft) 98 %
04.03.2014 01:20 2,9 C 2,8 C 2,9 C 88 % 996,9 hPa 0,0 l/m 0,0 km/h (0 Bft) N 360 0 min 0,000 mm 0 W/m 1,1 C 2,9 C 3,2 km/h (1 Bft) 97 %
04.03.2014 01:30 2,9 C 2,8 C 2,9 C 88 % 996,9 hPa 0,0 l/m 0,0 km/h (0 Bft) N 0 0 min 0,000 mm 0 W/m 1,1 C 2,9 C 0,0 km/h (0 Bft) 97 %
04.03.2014 01:40 2,9 C 2,8 C 2,9 C 88 % 996,9 hPa 0,0 l/m 0,0 km/h (0 Bft) N 360 0 min 0,000 mm 0 W/m 1,1 C 2,9 C 1,6 km/h (1 Bft) 98 %
04.03.2014 01:50 2,9 C 2,9 C 2,9 C 88 % 997,0 hPa 0,0 l/m 0,0 km/h (0 Bft) N 360 0 min 0,000 mm 0 W/m 1,1 C 2,9 C 1,6 km/h (1 Bft) 97 %
04.03.2014 02:00 2,8 C 2,8 C 2,9 C 88 % 997,1 hPa 0,0 l/m 0,0 km/h (0 Bft) N 360 0 min 0,000 mm 0 W/m 1,0 C 2,8 C 4,8 km/h (1 Bft) 98 %
04.03.2014 02:10 2,7 C 2,7 C 2,8 C 88 % 997,1 hPa 0,0 l/m 0,0 km/h (0 Bft) N-NW 337 0 min 0,000 mm 0 W/m 0,9 C 2,7 C 3,2 km/h (1 Bft) 97 %
04.03.2014 02:20 2,8 C 2,7 C 2,8 C 88 % 997,0 hPa 0,0 l/m 0,0 km/h (0 Bft) N 0 0 min 0,000 mm 0 W/m 1,0 C 2,8 C 0,0 km/h (0 Bft) 97 %
04.03.2014 02:30 2,9 C 2,8 C 2,9 C 88 % 997,1 hPa 0,0 l/m 0,0 km/h (0 Bft) N-NW 337 0 min 0,000 mm 0 W/m 1,1 C 2,9 C 3,2 km/h (1 Bft) 98 %
04.03.2014 02:40 3,0 C 2,9 C 3,0 C 88 % 997,3 hPa 0,0 l/m 0,0 km/h (0 Bft) N-NW 337 0 min 0,000 mm 0 W/m 1,2 C 3,0 C 1,6 km/h (1 Bft) 96 %
04.03.2014 02:50 3,1 C 3,0 C 3,1 C 88 % 997,4 hPa 0,0 l/m 0,0 km/h (0 Bft) N-NW 337 0 min 0,000 mm 0 W/m 1,3 C 3,1 C 3,2 km/h (1 Bft) 98 %
04.03.2014 03:00 3,1 C 3,1 C 3,1 C 88 % 997,4 hPa 0,0 l/m 0,0 km/h (0 Bft) N-NW 337 0 min 0,000 mm 0 W/m 1,3 C 3,1 C 1,6 km/h (1 Bft) 97 %
04.03.2014 03:10 3,1 C 3,1 C 3,1 C 88 % 997,4 hPa 0,0 l/m 0,0 km/h (0 Bft) N 0 0 min 0,000 mm 0 W/m 1,3 C 3,1 C 0,0 km/h (0 Bft) 98 %
04.03.2014 03:20 3,1 C 3,1 C 3,1 C 88 % 997,4 hPa 0,0 l/m 0,0 km/h (0 Bft) N-NW 337 0 min 0,000 mm 0 W/m 1,3 C 3,1 C 1,6 km/h (1 Bft) 98 %
04.03.2014 03:30 3,3 C 3,1 C 3,3 C 88 % 997,4 hPa 0,0 l/m 0,0 km/h (0 Bft) N-NW 337 0 min 0,000 mm 0 W/m 1,5 C 3,3 C 1,6 km/h (1 Bft) 97 %
04.03.2014 03:40 3,2 C 3,2 C 3,3 C 88 % 997,4 hPa 0,0 l/m 0,0 km/h (0 Bft) N-NW 337 0 min 0,000 mm 0 W/m 1,4 C 3,2 C 1,6 km/h (1 Bft) 98 %
04.03.2014 03:50 3,1 C 3,1 C 3,2 C 88 % 997,5 hPa 0,0 l/m 0,0 km/h (0 Bft) N-NW 337 0 min 0,000 mm 0 W/m 1,3 C 3,1 C 1,6 km/h (1 Bft) 97 %
04.03.2014 04:00 3,1 C 3,1 C 3,1 C 88 % 997,6 hPa 0,0 l/m 0,0 km/h (0 Bft) N-NW 337 0 min 0,000 mm 0 W/m 1,3 C 3,1 C 3,2 km/h (1 Bft) 98 %
04.03.2014 04:10 3,1 C 3,1 C 3,1 C 88 % 997,6 hPa 0,0 l/m 0,0 km/h (0 Bft) N-NW 337 0 min 0,000 mm 0 W/m 1,3 C 3,1 C 1,6 km/h (1 Bft) 97 %
04.03.2014 04:20 3,1 C 3,1 C 3,1 C 88 % 997,8 hPa 0,0 l/m 0,0 km/h (0 Bft) N-NW 337 0 min 0,000 mm 0 W/m 1,3 C 3,1 C 3,2 km/h (1 Bft) 98 %
04.03.2014 04:30 3,2 C 3,1 C 3,2 C 88 % 997,9 hPa 0,0 l/m 0,0 km/h (0 Bft) N-NW 337 0 min 0,000 mm 0 W/m 1,4 C 3,2 C 1,6 km/h (1 Bft) 98 %
04.03.2014 04:40 3,2 C 3,1 C 3,2 C 88 % 998,0 hPa 0,0 l/m 0,0 km/h (0 Bft) N-NW 337 0 min 0,000 mm 0 W/m 1,4 C 3,2 C 1,6 km/h (1 Bft) 97 %
04.03.2014 04:50 3,3 C 3,2 C 3,3 C 88 % 998,0 hPa 0,0 l/m 0,0 km/h (0 Bft) N-NW 337 0 min 0,000 mm 0 W/m 1,5 C 3,3 C 3,2 km/h (1 Bft) 88 %
04.03.2014 05:00 3,3 C 3,2 C 3,3 C 88 % 998,0 hPa 0,0 l/m 0,0 km/h (0 Bft) N-NW 337 0 min 0,000 mm 0 W/m 1,5 C 3,3 C 1,6 km/h (1 Bft) 97 %
04.03.2014 05:10 3,3 C 3,3 C 3,3 C 88 % 998,1 hPa 0,0 l/m 0,0 km/h (0 Bft) N-NW 337 0 min 0,000 mm 0 W/m 1,5 C 3,3 C 1,6 km/h (1 Bft) 98 %
04.03.2014 05:20 3,3 C 3,3 C 3,3 C 88 % 998,2 hPa 0,0 l/m 0,0 km/h (0 Bft) N 0 0 min 0,000 mm 0 W/m 1,5 C 3,3 C 0,0 km/h (0 Bft) 97 %
04.03.2014 05:30 3,3 C 3,3 C 3,3 C 88 % 998,5 hPa 0,0 l/m 0,0 km/h (0 Bft) N-NW 337 0 min 0,000 mm 0 W/m 1,5 C 3,3 C 1,6 km/h (1 Bft) 98 %
04.03.2014 05:40 3,3 C 3,3 C 3,3 C 88 % 998,5 hPa 0,0 l/m 0,0 km/h (0 Bft) N-NW 337 0 min 0,000 mm 0 W/m 1,5 C 3,3 C 1,6 km/h (1 Bft) 99 %
04.03.2014 05:50 3,3 C 3,3 C 3,3 C 88 % 998,6 hPa 0,0 l/m 0,0 km/h (0 Bft) N-NW 337 0 min 0,000 mm 0 W/m 1,5 C 3,3 C 1,6 km/h (1 Bft) 98 %
04.03.2014 06:00 3,3 C 3,3 C 3,3 C 88 % 998,7 hPa 0,0 l/m 0,0 km/h (0 Bft) N 0 0 min 0,000 mm 0 W/m 1,5 C 3,3 C 0,0 km/h (0 Bft) 99 %
04.03.2014 06:10 3,3 C 3,3 C 3,3 C 88 % 998,8 hPa 0,0 l/m 0,0 km/h (0 Bft) N 0 0 min 0,000 mm 0 W/m 1,5 C 3,3 C 0,0 km/h (0 Bft) 100 %
04.03.2014 06:20 3,3 C 3,3 C 3,3 C 88 % 998,9 hPa 0,0 l/m 0,0 km/h (0 Bft) N-NW 337 0 min 0,000 mm 0 W/m 1,5 C 3,3 C 1,6 km/h (1 Bft) 100 %
04.03.2014 06:30 3,3 C 3,3 C 3,3 C 88 % 999,0 hPa 0,0 l/m 0,0 km/h (0 Bft) N-NW 337 0 min 0,000 mm 0 W/m 1,5 C 3,3 C 3,2 km/h (1 Bft) 99 %
04.03.2014 06:40 3,2 C 3,2 C 3,3 C 88 % 999,1 hPa 0,0 l/m 0,0 km/h (0 Bft) N-NW 337 0 min 0,000 mm 0 W/m 1,4 C 3,2 C 4,8 km/h (1 Bft) 90 %
04.03.2014 06:50 3,2 C 3,2 C 3,2 C 88 % 999,3 hPa 0,0 l/m 0,0 km/h (0 Bft) N-NW 337 0 min 0,000 mm 0 W/m 1,4 C 3,2 C 1,6 km/h (1 Bft) 100 %
04.03.2014 07:00 3,1 C 3,1 C 3,2 C 88 % 999,3 hPa 0,0 l/m 0,0 km/h (0 Bft) N-NW 337 0 min 0,000 mm 0 W/m 1,3 C 3,1 C 1,6 km/h (1 Bft) 99 %
04.03.2014 07:10 3,1 C 3,1 C 3,1 C 88 % 999,4 hPa 0,0 l/m 0,0 km/h (0 Bft) N-NW 337 0 min 0,000 mm 0 W/m 1,3 C 3,1 C 1,6 km/h (1 Bft) 100 %
04.03.2014 07:20 3,2 C 3,1 C 3,2 C 88 % 999,4 hPa 0,0 l/m 0,0 km/h (0 Bft) N 360 0 min 0,000 mm 7 W/m 1,4 C 3,2 C 3,2 km/h (1 Bft) 99 %
04.03.2014 07:30 3,2 C 3,2 C 3,2 C 88 % 999,5 hPa 0,0 l/m 0,0 km/h (0 Bft) N 360 0 min 0,000 mm 19 W/m 1,4 C 3,2 C 1,6 km/h (1 Bft) 100 %
04.03.2014 07:40 3,3 C 3,2 C 3,3 C 88 % 999,7 hPa 0,0 l/m 0,0 km/h (0 Bft) N 360 0 min 0,000 mm 62 W/m 1,5 C 3,3 C 1,6 km/h (1 Bft) 100 %
04.03.2014 07:50 3,5 C 3,3 C 3,5 C 88 % 999,8 hPa 0,0 l/m 0,0 km/h (0 Bft) N 360 0 min 0,000 mm 90 W/m 1,7 C 3,5 C 1,6 km/h (1 Bft) 100 %
04.03.2014 08:00 3,7 C 3,5 C 3,7 C 88 % 999,9 hPa 0,0 l/m 0,0 km/h (0 Bft) N 360 0 min 0,025 mm 88 W/m 1,9 C 3,7 C 3,2 km/h (1 Bft) 99 %
04.03.2014 08:10 3,9 C 3,7 C 3,9 C 88 % 999,9 hPa 0,0 l/m 0,0 km/h (0 Bft) N 360 0 min 0,000 mm 105 W/m 2,1 C 3,9 C 1,6 km/h (1 Bft) 100 %
04.03.2014 08:20 4,3 C 3,9 C 4,3 C 88 % 1000,1 hPa 0,0 l/m 0,0 km/h (0 Bft) N 360 10 min 0,000 mm 155 W/m 2,5 C 4,3 C 3,2 km/h (1 Bft) 100 %
04.03.2014 08:30 4,8 C 4,3 C 4,8 C 86 % 1000,3 hPa 0,0 l/m 0,0 km/h (0 Bft) N 360 10 min 0,000 mm 225 W/m 2,7 C 4,8 C 1,6 km/h (1 Bft) 90 %
04.03.2014 08:40 5,5 C 4,8 C 5,5 C 85 % 1000,4 hPa 0,0 l/m 0,0 km/h (0 Bft) N 360 10 min 0,000 mm 232 W/m 3,2 C 5,5 C 1,6 km/h (1 Bft) 100 %
04.03.2014 08:50 6,2 C 5,5 C 6,2 C 83 % 1000,4 hPa 0,0 l/m 0,0 km/h (0 Bft) N 360 10 min 0,000 mm 213 W/m 3,5 C 6,2 C 1,6 km/h (1 Bft) 100 %
04.03.2014 09:00 6,8 C 6,3 C 6,8 C 80 % 1000,5 hPa 0,0 l/m 0,0 km/h (0 Bft) NW 315 10 min 0,076 mm 237 W/m 3,6 C 6,8 C 3,2 km/h (1 Bft) 100 %
04.03.2014 09:10 7,1 C 6,8 C 7,1 C 76 % 1000,6 hPa 0,0 l/m 0,0 km/h (0 Bft) NW 315 10 min 0,000 mm 257 W/m 3,2 C 7,1 C 8,0 km/h (2 Bft) 100 %
04.03.2014 09:20 7,6 C 7,1 C 7,6 C 76 % 1000,8 hPa 0,0 l/m 0,0 km/h (0 Bft) N-NW 337 10 min 0,000 mm 253 W/m 3,6 C 7,6 C 4,8 km/h (1 Bft) 100 %
04.03.2014 09:30 8,0 C 7,6 C 8,0 C 75 % 1000,9 hPa 0,0 l/m 1,6 km/h (1 Bft) NW 315 10 min 0,000 mm 299 W/m 3,8 C 8,0 C 8,0 km/h (2 Bft) 99 %
04.03.2014 09:40 8,4 C 8,0 C 8,4 C 72 % 1001,0 hPa 0,0 l/m 1,6 km/h (1 Bft) N-NW 337 10 min 0,000 mm 346 W/m 3,7 C 8,4 C 6,4 km/h (2 Bft) 99 %
04.03.2014 09:50 8,8 C 8,4 C 8,8 C 71 % 1001,2 hPa 0,0 l/m 1,6 km/h (1 Bft) N-NW 337 10 min 0,000 mm 304 W/m 3,8 C 8,8 C 8,0 km/h (2 Bft) 100 %
04.03.2014 10:00 9,1 C 8,8 C 9,1 C 70 % 1001,4 hPa 0,0 l/m 3,2 km/h (1 Bft) NW 315 10 min 0,127 mm 364 W/m 3,9 C 9,1 C 11,3 km/h (2 Bft) 100 %
04.03.2014 10:10 9,4 C 9,1 C 9,4 C 68 % 1001,5 hPa 0,0 l/m 3,2 km/h (1 Bft) NW 315 10 min 0,000 mm 390 W/m 3,8 C 9,4 C 11,3 km/h (2 Bft) 99 %
04.03.2014 10:20 9,9 C 9,4 C 9,9 C 65 % 1001,6 hPa 0,0 l/m 1,6 km/h (1 Bft) N-NW 337 10 min 0,000 mm 429 W/m 3,6 C 9,9 C 8,0 km/h (2 Bft) 100 %
04.03.2014 10:30 10,1 C 9,8 C 10,1 C 64 % 1001,7 hPa 0,0 l/m 1,6 km/h (1 Bft) NW 315 10 min 0,000 mm 422 W/m 3,6 C 10,1 C 6,4 km/h (2 Bft) 99 %
04.03.2014 10:40 10,1 C 10,1 C 10,1 C 64 % 1001,7 hPa 0,0 l/m 3,2 km/h (1 Bft) NW 315 10 min 0,000 mm 454 W/m 3,6 C 10,1 C 11,3 km/h (2 Bft) 98 %
04.03.2014 10:50 10,4 C 10,1 C 10,4 C 63 % 1001,7 hPa 0,0 l/m 3,2 km/h (1 Bft) NW 315 10 min 0,000 mm 461 W/m 3,7 C 10,4 C 14,5 km/h (3 Bft) 97 %
04.03.2014 11:00 10,7 C 10,4 C 10,7 C 62 % 1001,8 hPa 0,0 l/m 3,2 km/h (1 Bft) NW 315 10 min 0,203 mm 459 W/m 3,7 C 10,7 C 9,7 km/h (2 Bft) 98 %
04.03.2014 11:10 10,7 C 10,7 C 10,7 C 62 % 1001,8 hPa 0,0 l/m 3,2 km/h (1 Bft) NW 315 10 min 0,000 mm 457 W/m 3,7 C 10,7 C 9,7 km/h (2 Bft) 97 %
04.03.2014 11:20 10,6 C 10,6 C 10,7 C 62 % 1001,9 hPa 0,0 l/m 0,0 km/h (0 Bft) N-NW 337 10 min 0,000 mm 497 W/m 3,6 C 10,6 C 4,8 km/h (1 Bft) 98 %
04.03.2014 11:30 10,6 C 10,6 C 10,6 C 59 % 1001,9 hPa 0,0 l/m 0,0 km/h (0 Bft) N-NO 22 10 min 0,000 mm 524 W/m 2,9 C 10,6 C 4,8 km/h (1 Bft) 98 %
04.03.2014 11:40 10,6 C 10,5 C 10,6 C 59 % 1001,9 hPa 0,0 l/m 0,2 km/h (0 Bft) N 5 10 min 0,001 mm 548 W/m 2,9 C 10,6 C 3,2 km/h (1 Bft) 100 %
04.03.2014 11:50 10,8 C 10,6 C 10,8 C 58 % 1002,0 hPa 0,0 l/m 0,6 km/h (0 Bft) N 5 10 min 0,000 mm 548 W/m 2,9 C 10,8 C 4,8 km/h (1 Bft) 100 %
04.03.2014 12:00 11,3 C 10,8 C 11,3 C 56 % 1002,2 hPa 0,0 l/m 4,8 km/h (1 Bft) W-NW 300 10 min 0,254 mm 545 W/m 2,8 C 11,3 C 16,1 km/h (3 Bft) 100 %
04.03.2014 12:10 11,6 C 11,3 C 11,6 C 57 % 1002,2 hPa 0,0 l/m 5,3 km/h (1 Bft) NW 315 10 min 0,000 mm 452 W/m 3,4 C 11,6 C 16,1 km/h (3 Bft) 100 %
04.03.2014 12:20 11,8 C 11,6 C 11,8 C 56 % 1002,2 hPa 0,0 l/m 3,0 km/h (1 Bft) O-NO 67 10 min 0,000 mm 490 W/m 3,3 C 11,8 C 11,3 km/h (2 Bft) 100 %
04.03.2014 12:30 11,5 C 11,5 C 11,8 C 54 % 1002,3 hPa 0,0 l/m 0,7 km/h (0 Bft) N-NW 341 10 min 0,000 mm 538 W/m 2,5 C 11,5 C 4,8 km/h (1 Bft) 100 %
04.03.2014 12:40 11,5 C 11,4 C 11,5 C 55 % 1002,2 hPa 0,0 l/m 1,3 km/h (1 Bft) N-NW 336 10 min 0,000 mm 552 W/m 2,8 C 11,5 C 6,4 km/h (2 Bft) 100 %
04.03.2014 12:50 11,6 C 11,5 C 11,6 C 56 % 1002,2 hPa 0,0 l/m 2,3 km/h (1 Bft) NW 308 10 min 0,000 mm 236 W/m 3,1 C 11,6 C 8,0 km/h (2 Bft) 100 %
04.03.2014 13:00 12,0 C 11,6 C 12,0 C 54 % 1002,2 hPa 0,0 l/m 6,1 km/h (2 Bft) N-NW 336 10 min 0,279 mm 598 W/m 3,0 C 12,0 C 19,3 km/h (3 Bft) 100 %
04.03.2014 13:10 12,3 C 12,0 C 12,3 C 54 % 1002,2 hPa 0,0 l/m 3,0 km/h (1 Bft) SW 225 10 min 0,000 mm 308 W/m 3,3 C 12,3 C 8,0 km/h (2 Bft) 99 %
04.03.2014 13:20 11,9 C 11,9 C 12,4 C 54 % 1002,2 hPa 0,0 l/m 3,6 km/h (1 Bft) W 266 10 min 0,000 mm 186 W/m 2,9 C 11,9 C 11,3 km/h (2 Bft) 99 %
04.03.2014 13:30 11,3 C 11,3 C 11,9 C 54 % 1002,3 hPa 0,0 l/m 6,1 km/h (2 Bft) W-NW 300 10 min 0,000 mm 165 W/m 2,3 C 11,3 C 12,9 km/h (3 Bft) 97 %
04.03.2014 13:40 11,2 C 11,2 C 11,3 C 56 % 1002,4 hPa 0,0 l/m 2,0 km/h (1 Bft) W-NW 302 10 min 0,000 mm 211 W/m 2,8 C 11,2 C 9,7 km/h (2 Bft) 97 %
04.03.2014 13:50 11,2 C 11,1 C 11,2 C 58 % 1002,4 hPa 0,0 l/m 2,6 km/h (1 Bft) NW 311 10 min 0,000 mm 193 W/m 3,2 C 11,2 C 9,7 km/h (2 Bft) 97 %
04.03.2014 14:00 11,1 C 11,1 C 11,2 C 55 % 1002,4 hPa 0,0 l/m 1,5 km/h (1 Bft) W-SW 238 10 min 0,153 mm 202 W/m 2,4 C 11,1 C 8,0 km/h (2 Bft) 97 %
04.03.2014 14:10 11,1 C 11,1 C 11,1 C 58 % 1002,5 hPa 0,0 l/m 2,2 km/h (1 Bft) W 276 0 min 0,000 mm 148 W/m 3,2 C 11,1 C 8,0 km/h (2 Bft) 97 %
04.03.2014 14:20 11,1 C 11,0 C 11,1 C 57 % 1002,5 hPa 0,0 l/m 1,1 km/h (1 Bft) W-NW 290 10 min 0,000 mm 172 W/m 2,9 C 11,1 C 4,8 km/h (1 Bft) 97 %
04.03.2014 14:30 11,7 C 11,1 C 11,7 C 56 % 1002,6 hPa 0,0 l/m 2,7 km/h (1 Bft) W-SW 258 10 min 0,000 mm 529 W/m 3,2 C 11,7 C 9,7 km/h (2 Bft) 97 %
04.03.2014 14:40 12,1 C 11,7 C 12,1 C 56 % 1002,7 hPa 0,0 l/m 4,2 km/h (1 Bft) W-SW 255 10 min 0,000 mm 610 W/m 3,6 C 12,1 C 16,1 km/h (3 Bft) 97 %
04.03.2014 14:50 11,9 C 11,9 C 12,1 C 58 % 1002,7 hPa 0,0 l/m 3,6 km/h (1 Bft) SW 236 0 min 0,000 mm 130 W/m 3,9 C 11,9 C 14,5 km/h (3 Bft) 97 %
04.03.2014 15:00 11,3 C 11,3 C 11,9 C 59 % 1002,8 hPa 0,0 l/m 3,2 km/h (1 Bft) NW 308 0 min 0,152 mm 102 W/m 3,6 C 11,3 C 9,7 km/h (2 Bft) 97 %
04.03.2014 15:10 10,9 C 10,9 C 11,3 C 60 % 1003,0 hPa 0,0 l/m 6,5 km/h (2 Bft) W-SW 237 0 min 0,000 mm 146 W/m 3,4 C 10,9 C 16,1 km/h (3 Bft) 97 %
04.03.2014 15:20 10,7 C 10,7 C 10,9 C 62 % 1003,0 hPa 0,0 l/m 2,4 km/h (1 Bft) W 263 10 min 0,000 mm 153 W/m 3,7 C 10,7 C 11,3 km/h (2 Bft) 97 %
04.03.2014 15:30 10,9 C 10,6 C 10,9 C 60 % 1003,0 hPa 0,0 l/m 2,4 km/h (1 Bft) W 260 0 min 0,000 mm 142 W/m 3,4 C 10,9 C 8,0 km/h (2 Bft) 97 %
04.03.2014 15:40 10,8 C 10,8 C 10,9 C 60 % 1003,1 hPa 0,0 l/m 3,8 km/h (1 Bft) S-SW 204 0 min 0,000 mm 141 W/m 3,4 C 10,8 C 9,7 km/h (2 Bft) 97 %
04.03.2014 15:50 10,8 C 10,7 C 10,8 C 58 % 1003,1 hPa 0,0 l/m 1,8 km/h (1 Bft) W-NW 303 0 min 0,000 mm 134 W/m 2,9 C 10,8 C 8,0 km/h (2 Bft) 97 %
04.03.2014 16:00 10,8 C 10,7 C 10,8 C 54 % 1003,4 hPa 0,0 l/m 5,5 km/h (1 Bft) W-NW 292 0 min 0,102 mm 127 W/m 1,9 C 10,8 C 11,3 km/h (2 Bft) 97 %
04.03.2014 16:10 10,8 C 10,8 C 10,8 C 54 % 1003,5 hPa 0,0 l/m 5,4 km/h (1 Bft) W-NW 287 0 min 0,000 mm 130 W/m 1,9 C 10,8 C 14,5 km/h (3 Bft) 98 %
04.03.2014 16:20 11,1 C 10,8 C 11,1 C 54 % 1003,5 hPa 0,0 l/m 4,5 km/h (1 Bft) W-NW 289 0 min 0,000 mm 118 W/m 2,2 C 11,1 C 16,1 km/h (3 Bft) 97 %
04.03.2014 16:30 11,2 C 11,1 C 11,2 C 52 % 1003,6 hPa 0,0 l/m 11,6 km/h (2 Bft) NW 320 0 min 0,000 mm 65 W/m 1,7 C 8,1 C 22,5 km/h (4 Bft) 98 %
04.03.2014 16:40 11,0 C 11,0 C 11,2 C 54 % 1003,8 hPa 0,0 l/m 10,7 km/h (2 Bft) N-NW 327 0 min 0,000 mm 51 W/m 2,1 C 8,3 C 20,9 km/h (4 Bft) 97 %
04.03.2014 16:50 10,7 C 10,7 C 11,0 C 55 % 1004,0 hPa 0,0 l/m 7,6 km/h (2 Bft) NW 324 0 min 0,000 mm 46 W/m 2,0 C 9,9 C 17,7 km/h (3 Bft) 97 %
04.03.2014 17:00 10,3 C 10,3 C 10,7 C 57 % 1004,1 hPa 0,0 l/m 5,2 km/h (1 Bft) NW 308 0 min 0,000 mm 35 W/m 2,2 C 10,3 C 12,9 km/h (3 Bft) 97 %
04.03.2014 17:10 9,9 C 9,9 C 10,3 C 57 % 1004,2 hPa 0,0 l/m 8,1 km/h (2 Bft) NW 309 0 min 0,076 mm 33 W/m 1,8 C 8,7 C 17,7 km/h (3 Bft) 96 %
04.03.2014 17:20 9,7 C 9,7 C 9,9 C 58 % 1004,3 hPa 0,0 l/m 5,0 km/h (1 Bft) NW 315 0 min 0,000 mm 28 W/m 1,8 C 9,7 C 17,7 km/h (3 Bft) 97 %
04.03.2014 17:30 9,6 C 9,6 C 9,7 C 59 % 1004,4 hPa 0,0 l/m 5,4 km/h (1 Bft) N-NW 338 0 min 0,000 mm 26 W/m 2,0 C 9,6 C 14,5 km/h (3 Bft) 96 %
04.03.2014 17:40 9,3 C 9,3 C 9,6 C 61 % 1004,6 hPa 0,0 l/m 3,7 km/h (1 Bft) N-NW 331 0 min 0,000 mm 19 W/m 2,2 C 9,3 C 8,0 km/h (2 Bft) 98 %
04.03.2014 17:50 9,0 C 9,0 C 9,3 C 62 % 1004,7 hPa 0,0 l/m 2,4 km/h (1 Bft) N-NW 348 0 min 0,000 mm 14 W/m 2,1 C 9,0 C 9,7 km/h (2 Bft) 97 %
04.03.2014 18:00 8,7 C 8,7 C 9,1 C 63 % 1004,8 hPa 0,0 l/m 1,4 km/h (1 Bft) N-NW 338 0 min 0,025 mm 7 W/m 2,1 C 8,7 C 9,7 km/h (2 Bft) 97 %
04.03.2014 18:10 8,3 C 8,3 C 8,7 C 64 % 1004,8 hPa 0,0 l/m 0,7 km/h (0 Bft) N-NW 340 0 min 0,000 mm 0 W/m 1,9 C 8,3 C 8,0 km/h (2 Bft) 97 %
04.03.2014 18:20 8,1 C 8,1 C 8,3 C 64 % 1005,1 hPa 0,0 l/m 0,4 km/h (0 Bft) N-NW 343 0 min 0,000 mm 0 W/m 1,7 C 8,1 C 4,8 km/h (1 Bft) 97 %
04.03.2014 18:30 7,7 C 7,7 C 8,1 C 66 % 1005,2 hPa 0,0 l/m 0,1 km/h (0 Bft) N 355 0 min 0,000 mm 0 W/m 1,8 C 7,7 C 1,6 km/h (1 Bft) 98 %
04.03.2014 18:40 7,4 C 7,4 C 7,7 C 67 % 1005,2 hPa 0,0 l/m 0,1 km/h (0 Bft) N 350 0 min 0,000 mm 0 W/m 1,7 C 7,4 C 1,6 km/h (1 Bft) 97 %
04.03.2014 18:50 7,2 C 7,2 C 7,4 C 67 % 1005,5 hPa 0,0 l/m 0,0 km/h (0 Bft) N 350 0 min 0,000 mm 0 W/m 1,5 C 7,2 C 1,6 km/h (1 Bft) 98 %
04.03.2014 19:00 6,9 C 6,9 C 7,2 C 68 % 1005,6 hPa 0,0 l/m 0,0 km/h (0 Bft) N 350 0 min 0,000 mm 0 W/m 1,4 C 6,9 C 0,0 km/h (0 Bft) 97 %
04.03.2014 19:10 6,7 C 6,7 C 6,9 C 69 % 1005,7 hPa 0,0 l/m 0,0 km/h (0 Bft) N 350 0 min 0,000 mm 0 W/m 1,4 C 6,7 C 1,6 km/h (1 Bft) 97 %
04.03.2014 19:20 6,6 C 6,6 C 6,7 C 69 % 1006,0 hPa 0,0 l/m 0,0 km/h (0 Bft) N 350 0 min 0,000 mm 0 W/m 1,3 C 6,6 C 0,0 km/h (0 Bft) 98 %
04.03.2014 19:30 6,5 C 6,5 C 6,6 C 69 % 1006,2 hPa 0,0 l/m 0,0 km/h (0 Bft) N 350 0 min 0,000 mm 0 W/m 1,2 C 6,5 C 1,6 km/h (1 Bft) 97 %
04.03.2014 19:40 6,4 C 6,4 C 6,5 C 69 % 1006,3 hPa 0,0 l/m 0,0 km/h (0 Bft) N 350 0 min 0,000 mm 0 W/m 1,1 C 6,4 C 0,0 km/h (0 Bft) 97 %
04.03.2014 19:50 6,2 C 6,2 C 6,4 C 72 % 1006,4 hPa 0,0 l/m 0,1 km/h (0 Bft) N 350 0 min 0,000 mm 0 W/m 1,5 C 6,2 C 1,6 km/h (1 Bft) 97 %
04.03.2014 20:00 5,9 C 5,9 C 6,2 C 72 % 1006,5 hPa 0,0 l/m 0,0 km/h (0 Bft) N 350 0 min 0,026 mm 0 W/m 1,2 C 5,9 C 0,0 km/h (0 Bft) 98 %
04.03.2014 20:10 5,7 C 5,7 C 5,9 C 72 % 1006,6 hPa 0,0 l/m 0,0 km/h (0 Bft) N 350 0 min 0,000 mm 0 W/m 1,1 C 5,7 C 1,6 km/h (1 Bft) 97 %
04.03.2014 20:20 5,5 C 5,5 C 5,7 C 72 % 1006,8 hPa 0,0 l/m 0,0 km/h (0 Bft) N 350 0 min 0,000 mm 0 W/m 0,9 C 5,5 C 1,6 km/h (1 Bft) 89 %
04.03.2014 20:30 5,5 C 5,5 C 5,5 C 73 % 1007,0 hPa 0,0 l/m 0,0 km/h (0 Bft) N 350 0 min 0,000 mm 0 W/m 1,1 C 5,5 C 0,0 km/h (0 Bft) 97 %
04.03.2014 20:40 5,4 C 5,4 C 5,5 C 74 % 1007,2 hPa 0,0 l/m 0,0 km/h (0 Bft) N 350 0 min 0,000 mm 0 W/m 1,1 C 5,4 C 1,6 km/h (1 Bft) 99 %
04.03.2014 20:50 5,2 C 5,2 C 5,4 C 75 % 1007,4 hPa 0,0 l/m 0,0 km/h (0 Bft) N 350 0 min 0,000 mm 0 W/m 1,1 C 5,2 C 0,0 km/h (0 Bft) 100 %
04.03.2014 21:00 4,9 C 4,9 C 5,2 C 75 % 1007,6 hPa 0,0 l/m 0,0 km/h (0 Bft) N 350 0 min 0,025 mm 0 W/m 0,8 C 4,9 C 0,0 km/h (0 Bft) 100 %
04.03.2014 21:10 4,9 C 4,8 C 4,9 C 74 % 1007,6 hPa 0,0 l/m 0,0 km/h (0 Bft) N 0 0 min 0,000 mm 0 W/m 0,7 C 4,9 C 0,0 km/h (0 Bft) 100 %
04.03.2014 21:20 5,1 C 4,9 C 5,1 C 73 % 1007,6 hPa 0,0 l/m 0,0 km/h (0 Bft) N 360 0 min 0,000 mm 0 W/m 0,7 C 5,1 C 1,6 km/h (1 Bft) 100 %
04.03.2014 21:30 5,4 C 5,1 C 5,4 C 72 % 1007,7 hPa 0,0 l/m 0,0 km/h (0 Bft) N 360 0 min 0,000 mm 0 W/m 0,8 C 5,4 C 3,2 km/h (1 Bft) 100 %
04.03.2014 21:40 5,3 C 5,3 C 5,4 C 73 % 1007,9 hPa 0,0 l/m 0,0 km/h (0 Bft) N 360 0 min 0,000 mm 0 W/m 0,9 C 5,3 C 3,2 km/h (1 Bft) 100 %
04.03.2014 21:50 5,3 C 5,3 C 5,4 C 74 % 1008,0 hPa 0,0 l/m 0,0 km/h (0 Bft) N-NW 337 0 min 0,000 mm 0 W/m 1,0 C 5,3 C 3,2 km/h (1 Bft) 100 %
04.03.2014 22:00 5,3 C 5,3 C 5,4 C 75 % 1008,2 hPa 0,0 l/m 0,0 km/h (0 Bft) N-NW 337 0 min 0,025 mm 0 W/m 1,2 C 5,3 C 3,2 km/h (1 Bft) 100 %
04.03.2014 22:10 5,4 C 5,3 C 5,4 C 76 % 1008,3 hPa 0,0 l/m 0,0 km/h (0 Bft) N-NW 337 0 min 0,000 mm 0 W/m 1,5 C 5,4 C 3,2 km/h (1 Bft) 100 %
04.03.2014 22:20 5,6 C 5,4 C 5,6 C 76 % 1008,4 hPa 0,0 l/m 0,0 km/h (0 Bft) N-NW 337 0 min 0,000 mm 0 W/m 1,7 C 5,6 C 3,2 km/h (1 Bft) 100 %
04.03.2014 22:30 5,6 C 5,6 C 5,6 C 76 % 1008,6 hPa 0,0 l/m 0,0 km/h (0 Bft) N-NW 337 0 min 0,000 mm 0 W/m 1,7 C 5,6 C 3,2 km/h (1 Bft) 99 %
04.03.2014 22:40 5,4 C 5,4 C 5,6 C 77 % 1008,6 hPa 0,0 l/m 0,0 km/h (0 Bft) N 360 0 min 0,000 mm 0 W/m 1,7 C 5,4 C 6,4 km/h (2 Bft) 89 %
04.03.2014 22:50 5,4 C 5,3 C 5,4 C 79 % 1008,6 hPa 0,0 l/m 0,0 km/h (0 Bft) N-NW 337 0 min 0,000 mm 0 W/m 2,1 C 5,4 C 3,2 km/h (1 Bft) 100 %
04.03.2014 23:00 5,4 C 5,4 C 5,4 C 79 % 1008,6 hPa 0,0 l/m 1,6 km/h (1 Bft) N-NW 337 0 min 0,025 mm 0 W/m 2,1 C 5,4 C 8,0 km/h (2 Bft) 100 %
04.03.2014 23:10 5,4 C 5,4 C 5,4 C 79 % 1008,6 hPa 0,0 l/m 0,0 km/h (0 Bft) N 360 0 min 0,000 mm 0 W/m 2,1 C 5,4 C 8,0 km/h (2 Bft) 100 %
04.03.2014 23:20 5,3 C 5,3 C 5,4 C 80 % 1008,7 hPa 0,0 l/m 0,0 km/h (0 Bft) N-NW 337 0 min 0,000 mm 0 W/m 2,1 C 5,3 C 3,2 km/h (1 Bft) 100 %
04.03.2014 23:30 5,2 C 5,2 C 5,3 C 80 % 1008,9 hPa 0,0 l/m 0,0 km/h (0 Bft) N 360 0 min 0,000 mm 0 W/m 2,0 C 5,2 C 1,6 km/h (1 Bft) 99 %
04.03.2014 23:40 5,0 C 5,0 C 5,2 C 81 % 1008,9 hPa 0,0 l/m 0,0 km/h (0 Bft) N 360 0 min 0,000 mm 0 W/m 2,0 C 5,0 C 3,2 km/h (1 Bft) 100 %
04.03.2014 23:50 4,9 C 4,9 C 5,0 C 82 % 1008,9 hPa 0,0 l/m 0,0 km/h (0 Bft) N 360 0 min 0,000 mm 0 W/m 2,1 C 4,9 C 3,2 km/h (1 Bft) 100 %
_ Min-Zeit 00:00 00:00 00:00 16:30 00:00 - 00:00 - - - - - 21:10 00:00 01:10 00:10
Minimum _ 2,6 C 2,6 C 2,6 C 52 % 996,5 hPa - 0,0 km/h (0 Bft) - - - - - 0,7 C 2,6 C 0,0 km/h (0 Bft) 76 %
_ Max-Zeit 13:20 13:10 13:20 00:00 23:30 00:00 16:30 - - 08:20 13:00 14:40 10:00 13:10 16:30 06:50
Maximum _ 12,4 C 12,0 C 12,4 C 88 % 1008,9 hPa 0,0 l/m 11,6 km/h
NW (2 Bft)
- - 10 min 0,279 mm 610 W/m 3,9 C 12,3 C 22,5 km/h
NW (4 Bft)
100 %
Durchschnitt _ 6,6 C 6,5 C 6,7 C 74 % 1002,0 hPa #0,0 l/m 1,3 km/h (1 Bft) NW - #6:30 h #1,574 mm 250 W/m 2,0 C 6,6 C 5,4 km/h (1 Bft) 98 %
PRIVATE WETTERSTATION BILLIGHEIM-ALLFELD - www.neckar-odenwald-wetter.de - Holger Sonntag